Updated08/08/2020 04:40 
 

GeoURL
free counters
Scottish Weather Network UK Weather Network Cumulus Top Weather Sites

Peebles Weather - Nearby METAR Reports

Raw Data, Raw Data Expanded

Ignore low humidity and Dew Point values. Something wrong with the sensor.
Daytime temperatures are in direct sunlight so may be higher than official air temperature values.
As with any other website, we log your IP address and browser type in the server logs for diagnostic reasons. Cookies are used to record visit time and gauges preferences. No personal information is stored or processed.

All times are in local time (GMT, or BST in summer) unless specified.

2020/08/08 03:20 EGPH 080320Z 25005KT CAVOK 10/09 Q1022
7.9°C 0.0 mm 0.0 mm 0.0 mm 0.0 mph 0.0 mph 1017.9 hPa 40% X-Ray Solar Flare Level
Planetary K-Index
Planetary K-Index History
Station Warn Rain Snow Flood Wind Ltng Heat Cold Glob Moon Temp Rain 1h Rain Sat Rain 24h Wind 10m Gust Pressure Hum Proton Levels
Thunderstorm
m Waning Gibbous Cold F0-E F: A: Kp:0 SSN:0

METAR Reports

 

EGPH - Edinburgh Airpor, United Kingdom
Distance from station: NNW 22mi, 36km
Updated: 08/08/2020 04:20
Clear
Clear
 Wind from WSW
Wind: WSW 6 mph , 9 km/h
Temperature: 10°C
Wind Chill: 9°C
Dew Point: 9°C
Humidity: 94%
Barometer: 1022 hPa
Summary: Clear
Visibility: greater than 7 miles , 10 km
2020/08/08 03:20 EGPH 080320Z 25005KT CAVOK 10/09 Q1022
EGOM - Spadeadam, United Kingdom
Distance from station: SSE 49mi, 79km
Updated: 08/08/2020 03:50
Mist, Mostly cloudy
Mist, Mostly cloudy
 Wind from NW
Wind: NW 3 mph , 6 km/h
Temperature: 12°C
Dew Point: 12°C
Humidity: 100%
Barometer: 1021 hPa
Summary: Mist
Clouds: Mostly cloudy
Visibility: 3 miles , 5 km
Cloud details: Mostly cloudy 61 m
2020/08/08 02:50 EGOM 080250Z AUTO 32003KT 4600 BR BKN002/// 12/12 Q1021
 
EGNC - Carlisle, United Kingdom
Distance from station: SSE 51mi, 82km
Updated: 27/03/2020 14:50
NOT Current
Mostly cloudy
Mostly cloudy
 Wind from ENE
Wind: ENE 9 mph , 15 km/h
Temperature: 11°C
Dew Point: 4°C
Humidity: 62%
Barometer: 1029 hPa
Clouds: Mostly cloudy
Visibility: 6 miles , 9 km
Cloud details: Few Clouds 1067 m
Mostly cloudy 1372 m
2020/03/27 14:50 EGNC 271450Z 07008KT 050V110 9000 FEW035 BKN045 11/04 Q1029
EGPF - Glasgow Airport, United Kingdom
Distance from station: WNW 51mi, 82km
Updated: 08/08/2020 04:20
Shallow fog, Partly cloudy
Shallow fog, Partly cloudy
 Wind from WSW
Wind: WSW 2 mph , 4 km/h
Temperature: 8°C
Dew Point: 8°C
Humidity: 100%
Barometer: 1023 hPa
Summary: Shallow Fog
Clouds: Partly cloudy
Visibility: 6 miles , 10 km
2020/08/08 03:20 EGPF 080320Z 25002KT 9999 MIFG NSC 08/08 Q1023
 
EGQL - Leuchars Raf, United Kingdom
Distance from station: NNE 53mi, 85km
Updated: 08/08/2020 03:50
Clear
Clear
 Wind from W
Wind: W 8 mph , 13 km/h
Temperature: 11°C
Dew Point: 10°C
Humidity: 94%
Barometer: 1021 hPa
Summary: Clear
Visibility: greater than 7 miles , 10 km
2020/08/08 02:50 EGQL 080250Z 27007KT CAVOK 11/10 Q1021 BLU
EGPK - Prestwick(Civ/Na, United Kingdom
Distance from station: W 55mi, 89km
Updated: 08/08/2020 03:50
Shallow fog, Few clouds
Shallow fog, Few clouds
 Wind from calm
Wind: Calm
Temperature: 8°C
Dew Point: 8°C
Humidity: 100%
Barometer: 1023 hPa
Summary: Shallow Fog
Clouds: Few Clouds
Visibility: 6 miles , 10 km
Cloud details: Few Clouds 914 m
2020/08/08 02:50 EGPK 080250Z 00000KT 9999 MIFG FEW030 08/08 Q1023
 
EGPN - Dundee/Riverside, United Kingdom
Distance from station: N 56mi, 90km
Updated: 07/08/2020 20:20
NOT Current
Few Clouds
Few Clouds
 Wind from WSW
Wind: WSW 12 mph , 19 km/h
Temperature: 19°C
Dew Point: 17°C
Humidity: 88%
Barometer: 1016 hPa
Clouds: Few Clouds
Visibility: 6 miles , 10 km
Cloud details: Few Clouds 914 m
2020/08/07 19:20 EGPN 071920Z 24010KT 9999 FEW030 19/17 Q1016
EGNT - Newcastle, United Kingdom
Distance from station: SE 72mi, 116km
Updated: 08/08/2020 04:20
Clear
Clear
 Wind from W
Wind: W 5 mph , 7 km/h
Temperature: 14°C
Dew Point: 12°C
Humidity: 88%
Barometer: 1021 hPa
Clouds: Clear
Visibility: 6 miles , 10 km
2020/08/08 03:20 EGNT 080320Z AUTO 27004KT 9999 NCD 14/12 Q1021
 
EGNV - Tees-Side, United Kingdom
Distance from station: SE 104mi, 168km
Updated: 07/08/2020 20:50
NOT Current
Clear
Clear
 Wind from W
Wind: W 10 mph , 17 km/h
Temperature: 21°C
Dew Point: 16°C
Humidity: 73%
Barometer: 1017 hPa
Summary: Clear
Visibility: greater than 7 miles , 10 km
2020/08/07 19:50 EGNV 071950Z 26009KT CAVOK 21/16 Q1017
EGPD - Aberdeen/Dyce, United Kingdom
Distance from station: NNE 114mi, 183km
Updated: 08/08/2020 04:20
Clear
Clear
 Wind from varies
Wind: varies 2 mph , 4 km/h
Temperature: 10°C
Dew Point: 9°C
Humidity: 94%
Barometer: 1021 hPa
Clouds: Clear
Visibility: 6 miles , 10 km
2020/08/08 03:20 EGPD 080320Z AUTO VRB02KT 9999 NCD 10/09 Q1021 NOSIG
 
EGNS - Isle Of Man/Rona, United Kingdom
Distance from station: SSW 122mi, 197km
Updated: 08/08/2020 03:50
Clear
Clear
 Wind from N
Wind: N 8 mph , 13 km/h
Temperature: 15°C
Dew Point: 8°C
Humidity: 63%
Barometer: 1022 hPa
Summary: Clear
Visibility: greater than 7 miles , 10 km
2020/08/08 02:50 EGNS 080250Z 35007KT CAVOK 15/08 Q1022
EGAC - Belfast Harbour, United Kingdom
Distance from station: WSW 128mi, 206km
Updated: 08/08/2020 04:20
Fog
Fog
 Wind from S
Wind: S 3 mph , 6 km/h
Temperature: 11°C
Dew Point: 10°C
Humidity: 94%
Barometer: 1023 hPa
Summary: Fog
Visibility: 0 mile , 0 km
2020/08/08 03:20 EGAC 080320Z AUTO 19003KT 0300 FG VV/// 11/10 Q1023
 
EGPE - Inverness/Dalcro, United Kingdom
Distance from station: NNW 134mi, 215km
Updated: 08/08/2020 04:20
Clear
Clear
 Wind from varies
Wind: varies 1 mph , 2 km/h
Temperature: 8°C
Dew Point: 7°C
Humidity: 93%
Barometer: 1022 hPa
Summary: Clear
Visibility: greater than 7 miles , 10 km
2020/08/08 03:20 EGPE 080320Z VRB01KT CAVOK 08/07 Q1022
XHTML 1.1 | CSS